Terminal Aerodrome Forecast
Issued by NWS

Home | Current Version | Previous Version | Graphics & Text | Print | Product List | Glossary On
Versions: 1 2 3 4 5 6 7 8 9 10 11 12 13 14 15 16 17 18 19 20 21 22 23
000
FTUS43 KICT 171215 AAB
TAFSLN
TAF AMD
KSLN 171215Z 1712/1812 11007KT P6SM BKN011 OVC070
      TEMPO 1712/1716 OVC008
     FM171600 10009KT P6SM OVC013
     FM172000 08009KT P6SM BKN025 OVC050
     FM180200 09009KT 5SM -SN OVC008=

USA.gov is the U.S. government's official web portal to all federal, state and local government web resources and services.